Time;durP1;ratioP1;P1;durP2;ratioP2;P2;SDS_P1;SDS_P2;PMS_P1;PMS_P2;Temp;Humidity;BMP_temperature;BMP_pressure;BME280_temperature;BME280_humidity;BME280_pressure;Samples;Min_cycle;Max_cycle;Signal;HPM_P1;HPM_P2
2022/06/18 00:02:18;;;;;;;5.55;3.05;;;;;;;18.18;100.00;101612.97;10206428;28;20091;-69
2022/06/18 00:07:18;;;;;;;5.07;2.88;;;;;;;18.12;100.00;101609.63;10214150;28;20087;-68
2022/06/18 00:17:34;;;;;;;8.02;3.40;;;;;;;18.06;100.00;101599.97;10194654;28;20074;-70
2022/06/18 00:22:30;;;;;;;6.93;3.20;;;;;;;18.06;100.00;101599.97;10215216;28;20080;-69
2022/06/18 00:27:27;;;;;;;6.05;2.90;;;;;;;18.06;100.00;101597.19;10205640;28;20471;-71
2022/06/18 00:32:23;;;;;;;7.93;3.63;;;;;;;18.02;100.00;101587.97;10221264;28;20128;-69
2022/06/18 00:37:20;;;;;;;5.20;2.92;;;;;;;17.99;100.00;101583.13;10219704;28;20802;-69
2022/06/18 00:42:30;;;;;;;7.38;3.10;;;;;;;17.96;100.00;101572.75;10226144;28;20041;-70
2022/06/18 00:48:07;;;;;;;7.43;3.22;;;;;;;17.94;100.00;101563.97;10219085;28;20068;-69
2022/06/18 00:53:28;;;;;;;6.78;2.95;;;;;;;17.90;100.00;101557.53;10220622;28;20596;-69
2022/06/18 00:58:39;;;;;;;4.85;2.90;;;;;;;17.84;100.00;101557.75;10231778;28;20052;-69
2022/06/18 01:03:38;;;;;;;8.07;2.97;;;;;;;17.80;100.00;101545.78;10232038;28;20464;-70
2022/06/18 01:08:34;;;;;;;4.78;3.33;;;;;;;17.78;100.00;101536.22;10232075;28;20072;-70
2022/06/18 01:13:35;;;;;;;4.90;2.80;;;;;;;17.75;100.00;101534.91;10231707;28;20456;-70
2022/06/18 01:18:32;;;;;;;6.35;2.72;;;;;;;17.74;100.00;101530.56;10231706;28;20045;-69
2022/06/18 01:23:33;;;;;;;5.57;3.15;;;;;;;17.72;100.00;101523.75;10222779;28;20126;-69
2022/06/18 01:28:29;;;;;;;5.72;2.55;;;;;;;17.71;100.00;101528.47;10227023;28;20128;-69
2022/06/18 01:33:26;;;;;;;6.63;2.80;;;;;;;17.70;100.00;101515.78;10225338;28;20045;-69
2022/06/18 01:38:24;;;;;;;4.97;2.80;;;;;;;17.67;100.00;101505.44;10217258;28;20140;-70
2022/06/18 01:43:23;;;;;;;8.07;2.78;;;;;;;17.64;100.00;101495.88;10220496;28;20489;-70
2022/06/18 01:48:22;;;;;;;6.07;3.25;;;;;;;17.63;100.00;101487.91;10225461;28;20699;-70
2022/06/18 01:53:30;;;;;;;4.63;2.67;;;;;;;17.61;100.00;101481.94;10228049;28;20072;-69
2022/06/18 01:58:37;;;;;;;5.03;2.80;;;;;;;17.56;100.00;101473.88;10224852;28;20053;-70
2022/06/18 02:03:34;;;;;;;5.57;3.05;;;;;;;17.56;100.00;101463.59;10227699;28;20409;-69
2022/06/18 02:08:31;;;;;;;8.35;2.92;;;;;;;17.54;100.00;101456.81;10223344;28;20085;-70
2022/06/18 02:13:34;;;;;;;7.28;3.20;;;;;;;17.54;100.00;101445.75;10229969;28;20695;-70
2022/06/18 02:18:34;;;;;;;4.65;2.63;;;;;;;17.53;100.00;101444.16;10215997;28;20144;-70
2022/06/18 02:23:31;;;;;;;7.00;2.72;;;;;;;17.52;100.00;101445.31;10223556;28;20501;-70
2022/06/18 02:28:32;;;;;;;4.95;2.83;;;;;;;17.49;100.00;101434.94;10226952;28;20080;-70
2022/06/18 02:33:36;;;;;;;5.27;2.50;;;;;;;17.48;100.00;101436.09;10226803;28;20041;-70
2022/06/18 02:38:33;;;;;;;7.47;2.70;;;;;;;17.45;100.00;101427.34;10212196;28;20140;-70
2022/06/18 02:43:29;;;;;;;4.97;2.75;;;;;;;17.43;100.00;101418.59;10207016;28;20141;-69
2022/06/18 02:48:29;;;;;;;4.88;2.30;;;;;;;17.44;100.00;101420.19;10205815;28;20081;-70
2022/06/18 02:53:28;;;;;;;5.55;2.25;;;;;;;17.42;100.00;101416.19;10213333;28;20531;-70
2022/06/18 02:58:28;;;;;;;4.50;2.30;;;;;;;17.41;100.00;101412.63;10206470;28;20100;-70
2022/06/18 03:03:29;;;;;;;4.10;2.17;;;;;;;17.43;100.00;101407.53;10219381;28;20072;-70
2022/06/18 03:08:28;;;;;;;6.15;2.92;;;;;;;17.42;100.00;101410.66;10215914;28;20065;-70
2022/06/18 03:13:25;;;;;;;4.40;2.20;;;;;;;17.38;100.00;101405.03;10223080;28;20541;-70
2022/06/18 03:18:25;;;;;;;5.32;2.40;;;;;;;17.37;100.00;101408.13;10217049;28;20053;-71
2022/06/18 03:23:23;;;;;;;5.95;2.45;;;;;;;17.32;100.00;101398.09;10225262;28;20037;-69
2022/06/18 03:28:21;;;;;;;5.43;2.30;;;;;;;17.25;100.00;101400.66;10221752;28;20041;-70
2022/06/18 03:33:18;;;;;;;4.57;2.38;;;;;;;17.30;100.00;101403.19;10218580;28;20045;-70
2022/06/18 03:38:16;;;;;;;3.95;2.25;;;;;;;17.28;100.00;101394.41;10225952;28;20540;-70
2022/06/18 03:43:13;;;;;;;5.90;2.88;;;;;;;17.24;100.00;101399.84;10219297;28;20440;-70
2022/06/18 03:48:18;;;;;;;5.80;2.47;;;;;;;17.29;100.00;101401.56;10219499;28;20560;-70
2022/06/18 03:53:15;;;;;;;5.45;2.53;;;;;;;17.33;100.00;101402.47;10220037;28;20488;-70
2022/06/18 03:58:17;;;;;;;6.70;2.60;;;;;;;17.39;100.00;101403.84;10226930;28;20528;-70
2022/06/18 04:03:14;;;;;;;6.68;2.90;;;;;;;17.35;100.00;101411.22;10220703;28;20045;-70
2022/06/18 04:08:13;;;;;;;4.82;2.47;;;;;;;17.36;100.00;101406.50;10226304;28;20057;-70
2022/06/18 04:13:10;;;;;;;5.57;2.65;;;;;;;17.35;100.00;101405.69;10218086;28;20042;-70
2022/06/18 04:18:07;;;;;;;6.10;2.42;;;;;;;17.42;100.00;101397.63;10219149;28;20092;-70
2022/06/18 04:23:04;;;;;;;6.93;2.80;;;;;;;17.43;100.00;101415.03;10226334;28;20049;-70
2022/06/18 04:28:01;;;;;;;4.75;2.50;;;;;;;17.42;100.00;101405.91;10219359;28;20273;-70
2022/06/18 04:32:57;;;;;;;5.90;2.65;;;;;;;17.43;100.00;101412.28;10213227;28;20049;-70
2022/06/18 04:37:54;;;;;;;4.72;2.80;;;;;;;17.45;100.00;101405.25;10219315;28;20072;-70
2022/06/18 04:42:50;;;;;;;6.25;2.40;;;;;;;17.51;100.00;101405.78;10216884;28;20084;-69
2022/06/18 04:47:47;;;;;;;7.18;2.38;;;;;;;17.58;100.00;101407.97;10223804;28;20053;-70
2022/06/18 04:52:43;;;;;;;5.30;2.70;;;;;;;17.66;100.00;101404.25;10226903;28;20144;-70
2022/06/18 04:57:40;;;;;;;4.85;3.08;;;;;;;17.67;100.00;101417.75;10221137;28;20138;-70
2022/06/18 05:02:37;;;;;;;6.05;2.83;;;;;;;17.74;100.00;101428.22;10223915;28;20057;-70
2022/06/18 05:07:34;;;;;;;5.32;2.45;;;;;;;17.79;100.00;101436.25;10220019;28;20509;-69
2022/06/18 05:12:31;;;;;;;7.68;2.70;;;;;;;17.88;100.00;101423.13;10216310;28;20124;-70
2022/06/18 05:17:32;;;;;;;6.78;2.90;;;;;;;18.00;100.00;101418.72;10217228;28;20069;-69
2022/06/18 05:22:34;;;;;;;4.55;2.60;;;;;;;18.19;100.00;101410.56;10210406;28;20112;-69
2022/06/18 05:27:33;;;;;;;6.70;2.35;;;;;;;18.59;100.00;101406.91;10218270;28;20079;-70
2022/06/18 05:32:30;;;;;;;3.90;2.13;;;;;;;18.83;100.00;101399.63;10219403;28;20041;-70
2022/06/18 05:37:29;;;;;;;7.75;2.47;;;;;;;19.04;100.00;101383.50;10212217;28;20536;-70
2022/06/18 05:42:26;;;;;;;4.30;2.60;;;;;;;19.27;100.00;101385.63;10223940;28;20045;-70
2022/06/18 05:47:28;;;;;;;6.88;2.58;;;;;;;19.35;100.00;101373.50;10221537;28;20513;-70
2022/06/18 05:52:26;;;;;;;6.32;2.60;;;;;;;19.48;100.00;101375.00;10230496;28;20685;-70
2022/06/18 05:57:22;;;;;;;5.72;2.75;;;;;;;19.61;100.00;101384.00;10231390;28;20045;-70
2022/06/18 06:02:21;;;;;;;5.57;3.33;;;;;;;19.75;100.00;101372.44;10229767;28;20065;-70
2022/06/18 06:07:21;;;;;;;6.38;3.08;;;;;;;19.78;100.00;101377.25;10220526;28;20128;-69
2022/06/18 06:12:18;;;;;;;4.68;2.45;;;;;;;19.87;100.00;101388.16;10225741;28;20115;-69
2022/06/18 06:17:20;;;;;;;6.07;2.80;;;;;;;19.95;100.00;101387.91;10228167;28;20095;-70
2022/06/18 06:22:17;;;;;;;8.10;2.97;;;;;;;19.96;100.00;101375.66;10223031;28;20056;-70
2022/06/18 06:27:13;;;;;;;5.72;3.13;;;;;;;20.09;100.00;101375.47;10222091;28;20045;-69
2022/06/18 06:32:10;;;;;;;6.40;3.10;;;;;;;20.12;100.00;101383.06;10219788;28;20041;-69
2022/06/18 06:37:07;;;;;;;8.25;3.20;;;;;;;20.16;100.00;101381.16;10222886;28;20091;-70
2022/06/18 06:42:04;;;;;;;9.32;4.00;;;;;;;20.29;100.00;101379.84;10223819;28;20073;-69
2022/06/18 06:47:00;;;;;;;8.35;4.07;;;;;;;20.38;100.00;101383.19;10222361;28;20565;-70
2022/06/18 06:51:57;;;;;;;10.00;4.10;;;;;;;20.44;100.00;101377.31;10228442;28;20045;-70
2022/06/18 07:02:16;;;;;;;10.75;3.60;;;;;;;20.67;100.00;101378.16;10226313;28;20041;-70
2022/06/18 07:07:14;;;;;;;10.70;4.32;;;;;;;20.78;100.00;101379.13;10200020;28;20049;-70
2022/06/18 07:12:11;;;;;;;8.30;3.63;;;;;;;20.92;100.00;101394.44;10195846;28;20054;-70
2022/06/18 07:17:17;;;;;;;5.57;3.47;;;;;;;21.03;100.00;101401.00;10206315;28;20062;-70
2022/06/18 07:22:15;;;;;;;10.43;3.95;;;;;;;21.16;100.00;101410.72;10208890;28;20049;-71
2022/06/18 07:27:12;;;;;;;13.38;4.35;;;;;;;21.23;100.00;101405.28;10211877;28;20132;-68
2022/06/18 07:32:15;;;;;;;7.53;4.40;;;;;;;21.30;100.00;101395.41;10207831;28;20061;-70
2022/06/18 07:37:12;;;;;;;9.13;3.70;;;;;;;21.45;100.00;101405.63;10220040;28;20521;-69
2022/06/18 07:42:10;;;;;;;8.57;4.28;;;;;;;21.51;100.00;101398.53;10222159;28;20053;-68
2022/06/18 07:47:08;;;;;;;7.57;3.80;;;;;;;21.67;100.00;101397.56;10220343;28;20517;-70
2022/06/18 07:52:04;;;;;;;9.88;4.10;;;;;;;21.76;100.00;101392.50;10226938;28;20076;-69
2022/06/18 07:57:01;;;;;;;7.63;4.30;;;;;;;21.91;100.00;101402.66;10211633;28;20057;-69
2022/06/18 08:01:58;;;;;;;9.68;4.03;;;;;;;22.01;100.00;101392.81;10211311;28;20072;-69
2022/06/18 08:06:55;;;;;;;12.38;3.90;;;;;;;22.11;100.00;101389.34;10203208;28;20216;-69
2022/06/18 08:11:51;;;;;;;16.10;4.47;;;;;;;22.25;100.00;101397.09;10202092;28;20042;-69
2022/06/18 08:16:48;;;;;;;9.65;4.13;;;;;;;22.37;100.00;101380.13;10200179;28;20521;-69
2022/06/18 08:21:45;;;;;;;13.35;3.65;;;;;;;22.48;100.00;101383.78;10189703;28;20049;-69
2022/06/18 08:26:43;;;;;;;11.77;4.55;;;;;;;22.65;100.00;101395.47;10201059;28;20072;-69
2022/06/18 08:31:39;;;;;;;11.88;4.35;;;;;;;22.66;100.00;101394.31;10209792;28;20121;-67
2022/06/18 08:36:37;;;;;;;9.13;4.53;;;;;;;22.86;100.00;101397.66;10203199;28;20049;-70
2022/06/18 08:41:52;;;;;;;10.00;4.55;;;;;;;22.99;100.00;101395.41;10195937;28;20092;-69
2022/06/18 08:46:51;;;;;;;6.57;3.65;;;;;;;23.02;100.00;101394.63;10198696;28;20081;-69
2022/06/18 08:52:11;;;;;;;8.48;4.05;;;;;;;23.05;100.00;101399.44;10192066;28;20050;-68
2022/06/18 08:57:38;;;;;;;9.23;4.55;;;;;;;23.20;100.00;101403.91;10193126;28;20498;-68
2022/06/18 09:02:43;;;;;;;9.68;5.38;;;;;;;23.28;100.00;101413.94;10202727;28;20048;-68
2022/06/18 09:08:26;;;;;;;9.80;4.15;;;;;;;23.48;100.00;101436.00;10199310;28;20460;-67
2022/06/18 09:13:34;;;;;;;11.98;5.30;;;;;;;23.56;100.00;101439.66;10203928;28;20054;-68
2022/06/18 09:18:36;;;;;;;9.25;4.68;;;;;;;23.57;100.00;101436.44;10207419;28;20050;-68
2022/06/18 09:23:43;;;;;;;12.37;5.47;;;;;;;23.60;100.00;101435.69;10211015;28;20642;-68
2022/06/18 09:29:08;;;;;;;9.68;4.32;;;;;;;23.71;100.00;101428.13;10217286;28;20521;-68
2022/06/18 09:34:15;;;;;;;12.05;5.82;;;;;;;23.84;100.00;101444.59;10211218;28;20045;-68
2022/06/18 09:39:21;;;;;;;10.70;4.43;;;;;;;23.83;100.00;101443.00;10215776;28;20084;-68
2022/06/18 09:44:36;;;;;;;12.23;5.03;;;;;;;24.00;100.00;101442.28;10221691;28;20049;-68
2022/06/18 09:49:33;;;;;;;9.90;5.22;;;;;;;24.05;100.00;101453.06;10213416;28;20515;-68
2022/06/18 09:54:39;;;;;;;14.68;5.30;;;;;;;23.92;100.00;101463.78;10232937;28;20045;-68
2022/06/18 09:59:41;;;;;;;13.85;4.18;;;;;;;24.19;100.00;101466.28;10222257;28;20784;-68
2022/06/18 10:10:04;;;;;;;8.13;4.18;;;;;;;24.28;100.00;101468.72;10229732;28;19967;-68
2022/06/18 10:15:05;;;;;;;11.60;4.63;;;;;;;24.61;100.00;101452.88;10226714;28;20461;-68
2022/06/18 10:20:16;;;;;;;6.93;2.90;;;;;;;25.38;91.36;101476.47;10227912;28;20073;-68
2022/06/18 10:25:21;;;;;;;11.38;3.40;;;;;;;26.07;87.88;101479.94;10223241;28;20152;-68
2022/06/18 10:30:42;;;;;;;9.93;3.20;;;;;;;26.38;82.27;101483.78;10208774;28;20069;-69
2022/06/18 10:36:06;;;;;;;7.43;2.67;;;;;;;27.27;79.66;101484.44;10214492;28;20053;-68
2022/06/18 10:41:19;;;;;;;7.82;2.20;;;;;;;28.23;73.33;101491.03;10213422;28;20570;-70
2022/06/18 10:46:20;;;;;;;7.50;2.55;;;;;;;29.11;70.23;101480.94;10228177;28;20092;-70
2022/06/18 10:51:24;;;;;;;7.03;2.30;;;;;;;29.07;64.53;101474.56;10214662;28;20132;-68
2022/06/18 10:56:26;;;;;;;7.35;2.22;;;;;;;29.03;69.47;101483.03;10208143;28;20557;-69
2022/06/18 11:01:39;;;;;;;8.57;2.30;;;;;;;28.06;69.55;101486.44;10213562;28;20466;-70
2022/06/18 11:06:44;;;;;;;7.30;1.42;;;;;;;28.99;65.13;101473.06;10213093;28;20920;-69
2022/06/18 11:11:52;;;;;;;7.20;1.80;;;;;;;28.57;64.62;101481.78;10206131;28;20569;-69
2022/06/18 11:16:54;;;;;;;4.10;1.13;;;;;;;28.27;66.50;101491.78;10202568;28;20497;-68
2022/06/18 11:21:53;;;;;;;4.60;1.52;;;;;;;28.44;62.79;101489.94;10202530;28;20084;-70
2022/06/18 11:26:49;;;;;;;8.77;1.50;;;;;;;28.32;65.29;101485.69;10198946;28;20100;-70
2022/06/18 11:31:50;;;;;;;6.75;1.30;;;;;;;28.93;66.66;101481.22;10199180;28;20156;-70
2022/06/18 11:36:51;;;;;;;6.65;2.00;;;;;;;28.99;62.77;101485.13;10197507;28;20068;-70
2022/06/18 11:41:50;;;;;;;6.80;1.77;;;;;;;29.35;63.01;101495.81;10224238;28;20042;-70
2022/06/18 11:47:02;;;;;;;5.35;1.33;;;;;;;29.21;60.56;101501.69;10221107;28;20498;-70
2022/06/18 11:52:21;;;;;;;3.25;0.93;;;;;;;28.85;61.26;101479.75;10217321;28;20524;-70
2022/06/18 11:57:25;;;;;;;5.45;1.00;;;;;;;28.06;67.12;101478.03;10219670;28;20041;-70
2022/06/18 12:02:47;;;;;;;3.17;0.88;;;;;;;27.98;65.85;101480.09;10223653;28;20068;-70
2022/06/18 12:07:55;;;;;;;3.35;0.90;;;;;;;28.39;64.22;101472.75;10212959;28;20049;-70
2022/06/18 12:13:10;;;;;;;2.90;0.90;;;;;;;28.32;62.11;101485.69;10220872;28;20045;-70
2022/06/18 12:18:32;;;;;;;5.72;1.55;;;;;;;28.72;64.74;101483.13;10213241;28;20041;-70
2022/06/18 12:24:06;;;;;;;5.33;0.97;;;;;;;28.71;62.06;101470.31;10215295;28;20488;-70
2022/06/18 12:29:21;;;;;;;3.00;0.70;;;;;;;28.27;62.95;101463.69;10216851;28;20053;-70
2022/06/18 12:34:29;;;;;;;4.20;0.68;;;;;;;27.81;62.18;101459.41;10224396;28;20065;-70
2022/06/18 12:39:43;;;;;;;3.22;0.70;;;;;;;27.66;70.04;101457.97;10217111;28;20852;-70
2022/06/18 12:44:48;;;;;;;3.15;0.90;;;;;;;27.05;67.79;101493.00;10214538;28;20037;-70
2022/06/18 12:49:47;;;;;;;2.58;0.80;;;;;;;26.71;72.45;101475.22;10216657;28;20095;-70
2022/06/18 12:55:08;;;;;;;4.82;1.20;;;;;;;26.50;72.11;101490.16;10220327;28;20537;-71
2022/06/18 13:00:18;;;;;;;3.60;1.05;;;;;;;26.45;72.27;101482.97;10227542;28;20057;-70
2022/06/18 13:05:33;;;;;;;6.10;1.40;;;;;;;26.80;72.77;101481.16;10230766;28;20069;-70
2022/06/18 13:10:53;;;;;;;2.92;0.88;;;;;;;27.05;68.64;101487.38;10223030;28;20536;-70
2022/06/18 13:16:20;;;;;;;1.75;0.75;;;;;;;26.85;71.54;101477.91;10221749;28;20498;-70
2022/06/18 13:21:16;;;;;;;1.88;0.60;;;;;;;26.64;74.18;101485.28;10232007;28;20049;-70
2022/06/18 13:31:52;;;;;;;2.07;0.63;;;;;;;26.37;81.45;101476.59;10221402;28;20041;-70
2022/06/18 13:37:04;;;;;;;4.03;0.77;;;;;;;26.44;80.10;101486.97;10227666;28;20088;-71
2022/06/18 13:42:08;;;;;;;2.13;0.63;;;;;;;26.29;79.59;101491.06;10231546;28;20132;-70
2022/06/18 13:47:27;;;;;;;1.83;0.57;;;;;;;26.01;84.26;101498.38;10220013;28;20041;-70
2022/06/18 13:52:23;;;;;;;3.40;0.90;;;;;;;26.00;85.14;101513.59;10224694;28;20079;-70
2022/06/18 13:57:21;;;;;;;3.00;0.80;;;;;;;25.82;81.48;101497.59;10221083;28;20048;-70
2022/06/18 14:02:41;;;;;;;3.00;0.80;;;;;;;25.90;83.51;101509.63;10226414;28;20486;-70
2022/06/18 14:07:47;;;;;;;3.55;1.10;;;;;;;25.92;85.50;101512.00;10224367;28;20056;-70
2022/06/18 14:12:51;;;;;;;6.28;1.20;;;;;;;26.03;83.53;101519.19;10223748;28;20447;-70
2022/06/18 14:17:54;;;;;;;2.17;0.75;;;;;;;26.03;81.48;101509.97;10215561;28;20041;-70
2022/06/18 14:23:00;;;;;;;4.30;1.40;;;;;;;25.81;85.44;101504.41;10218876;28;20501;-70
2022/06/18 14:27:56;;;;;;;2.90;1.00;;;;;;;25.61;88.06;101514.47;10219544;28;20148;-69
2022/06/18 14:33:08;;;;;;;5.68;1.00;;;;;;;25.57;87.63;101510.84;10221387;28;20092;-70
2022/06/18 14:38:06;;;;;;;3.23;1.10;;;;;;;25.36;88.51;101504.06;10216885;28;20104;-70
2022/06/18 14:43:34;;;;;;;3.28;0.65;;;;;;;25.49;86.72;101500.88;10203574;28;20111;-69
2022/06/18 14:48:49;;;;;;;3.08;0.90;;;;;;;25.62;86.69;101499.25;10211768;28;20053;-69
2022/06/18 14:54:22;;;;;;;3.53;1.35;;;;;;;25.24;86.96;101501.69;10217400;28;20107;-70
2022/06/18 14:59:19;;;;;;;;;;;;;;;25.24;87.13;101484.91;10207418;28;20069;-69
2022/06/18 15:04:28;;;;;;;5.55;1.20;;;;;;;25.06;88.14;101486.88;10221526;28;19921;-69
2022/06/18 15:09:34;;;;;;;2.40;0.95;;;;;;;25.19;88.33;101482.50;10220825;28;20037;-69
2022/06/18 15:14:30;;;;;;;3.83;0.80;;;;;;;25.34;85.14;101467.31;10220043;28;20091;-69
2022/06/18 15:19:37;;;;;;;6.25;2.42;;;;;;;25.21;86.00;101460.53;10221054;28;20178;-69
2022/06/18 15:29:57;;;;;;;1.70;0.70;;;;;;;25.11;83.48;101464.06;10227784;28;20049;-70
2022/06/18 15:35:03;;;;;;;6.25;0.75;;;;;;;25.08;79.55;101453.69;10220150;28;20045;-69
2022/06/18 15:40:03;;;;;;;3.13;0.47;;;;;;;25.25;79.92;101441.72;10219231;28;20459;-70
2022/06/18 15:45:02;;;;;;;3.50;1.10;;;;;;;25.39;81.45;101436.09;10224428;28;20115;-70
2022/06/18 15:50:03;;;;;;;2.53;0.80;;;;;;;25.15;80.70;101442.50;10223258;28;20049;-69
2022/06/18 15:55:05;;;;;;;5.53;2.28;;;;;;;25.33;80.33;101423.72;10222569;28;20541;-69
2022/06/18 16:00:15;;;;;;;;;;;;;;;25.45;80.11;101432.91;10227351;28;20072;-69
2022/06/18 16:05:17;;;;;;;3.50;0.80;;;;;;;25.22;82.00;101430.53;10220560;28;20016;-69
2022/06/18 16:10:33;;;;;;;2.60;0.68;;;;;;;24.97;80.68;101412.53;10213454;28;20520;-69
2022/06/18 16:15:30;;;;;;;2.95;0.60;;;;;;;24.88;79.95;101426.13;10210165;28;20080;-69
2022/06/18 16:20:30;;;;;;;3.00;0.47;;;;;;;24.89;79.19;101433.31;10220921;28;20099;-69
2022/06/18 16:25:30;;;;;;;4.30;0.80;;;;;;;25.14;76.71;101446.50;10214049;28;20045;-69
2022/06/18 16:30:34;;;;;;;5.13;0.88;;;;;;;25.33;76.22;101454.50;10216902;28;20077;-69
2022/06/18 16:35:30;;;;;;;4.13;1.45;;;;;;;25.03;77.66;101445.72;10203002;28;20505;-69
2022/06/18 16:40:27;;;;;;;3.35;0.68;;;;;;;25.42;75.22;101464.50;10212229;28;20069;-69
2022/06/18 16:45:30;;;;;;;1.98;0.57;;;;;;;25.34;74.45;101466.50;10211537;28;20125;-69
2022/06/18 16:50:30;;;;;;;3.35;0.77;;;;;;;25.63;72.07;101467.25;10219856;28;20053;-70
2022/06/18 16:55:32;;;;;;;3.72;0.95;;;;;;;25.96;66.72;101456.78;10222627;28;20099;-69
2022/06/18 17:00:30;;;;;;;2.80;0.90;;;;;;;25.52;68.01;101455.28;10216994;28;20103;-70
2022/06/18 17:05:27;;;;;;;4.57;1.50;;;;;;;25.35;70.70;101460.50;10207421;28;20445;-69
2022/06/18 17:10:27;;;;;;;4.78;0.93;;;;;;;25.41;68.97;101455.28;10210337;28;20144;-70
2022/06/18 17:15:23;;;;;;;4.38;1.30;;;;;;;25.59;67.97;101455.25;10209107;28;20155;-70
2022/06/18 17:20:21;;;;;;;2.70;0.75;;;;;;;25.18;69.08;101447.31;10210947;28;20477;-70
2022/06/18 17:35:54;;;;;;;4.30;1.10;;;;;;;24.87;71.84;101437.72;10224059;28;20049;-70
2022/06/18 17:41:03;;;;;;;2.45;0.60;;;;;;;24.83;70.03;101426.50;10206144;28;20057;-70
2022/06/18 17:46:01;;;;;;;2.72;0.65;;;;;;;25.12;69.45;101437.72;10213988;28;20723;-68
2022/06/18 17:50:58;;;;;;;5.07;1.23;;;;;;;25.07;68.13;101418.53;10221391;28;20517;-68
2022/06/18 17:55:55;;;;;;;5.35;0.90;;;;;;;24.97;68.25;101406.94;10207781;28;20133;-68
2022/06/18 18:00:52;;;;;;;3.72;0.88;;;;;;;24.28;71.60;101415.63;10199664;28;20053;-68
2022/06/18 18:05:50;;;;;;;3.38;1.08;;;;;;;23.86;75.77;101414.31;10204905;28;20107;-68
2022/06/18 18:10:47;;;;;;;5.72;0.90;;;;;;;23.41;78.04;101405.25;10206529;28;20054;-68
2022/06/18 18:15:43;;;;;;;2.17;0.65;;;;;;;23.41;79.05;101396.88;10216856;28;20054;-68
2022/06/18 18:20:40;;;;;;;3.45;0.80;;;;;;;23.14;79.15;101396.31;10204862;28;20484;-68
2022/06/18 18:25:45;;;;;;;4.95;0.90;;;;;;;22.92;80.88;101398.09;10207554;28;20506;-68
2022/06/18 18:30:42;;;;;;;4.70;1.38;;;;;;;22.50;83.52;101379.84;10209008;28;20132;-68
2022/06/18 18:35:38;;;;;;;7.47;1.40;;;;;;;22.43;84.38;101378.56;10201988;28;20095;-68
2022/06/18 18:40:36;;;;;;;7.10;1.13;;;;;;;22.22;86.65;101389.50;10210404;28;20100;-67
2022/06/18 18:45:34;;;;;;;6.50;1.08;;;;;;;21.93;88.79;101403.06;10210753;28;20115;-68
2022/06/18 18:50:31;;;;;;;9.48;1.83;;;;;;;21.94;89.64;101387.97;10214245;28;20041;-68
2022/06/18 18:55:30;;;;;;;9.43;2.20;;;;;;;21.83;89.44;101387.03;10223367;28;20049;-68
2022/06/18 19:00:27;;;;;;;11.02;2.45;;;;;;;21.72;91.39;101398.03;10215458;28;20045;-68
2022/06/18 19:05:23;;;;;;;10.63;2.40;;;;;;;21.54;92.86;101408.94;10213148;28;20088;-68
2022/06/18 19:10:20;;;;;;;11.27;2.10;;;;;;;21.49;93.47;101400.91;10217724;28;20149;-68
2022/06/18 19:15:17;;;;;;;11.00;2.60;;;;;;;21.36;90.32;101393.94;10202415;28;20088;-68
2022/06/18 19:20:15;;;;;;;6.72;1.60;;;;;;;21.00;88.02;101385.03;10213703;28;20075;-68
2022/06/18 19:25:14;;;;;;;12.20;1.65;;;;;;;20.79;87.59;101374.38;10209050;28;20060;-68
2022/06/18 19:30:17;;;;;;;7.72;1.50;;;;;;;20.72;88.21;101363.94;10207589;28;20153;-68
2022/06/18 19:35:14;;;;;;;9.27;1.95;;;;;;;20.69;89.10;101348.03;10197232;28;20072;-68
2022/06/18 19:40:18;;;;;;;13.52;2.00;;;;;;;20.58;91.01;101352.59;10203286;28;20042;-68
2022/06/18 19:45:14;;;;;;;12.63;3.40;;;;;;;20.51;91.60;101358.00;10208327;28;20095;-68
2022/06/18 19:50:11;;;;;;;13.75;4.60;;;;;;;20.46;94.48;101355.53;10203175;28;20131;-68
2022/06/18 19:55:10;;;;;;;21.85;7.72;;;;;;;20.41;94.36;101364.19;10201937;28;20057;-68
2022/06/18 20:00:09;;;;;;;18.30;3.10;;;;;;;20.22;95.32;101368.59;10212895;28;20053;-69
2022/06/18 20:05:06;;;;;;;11.27;2.85;;;;;;;20.09;97.05;101356.06;10203939;28;20103;-68
2022/06/18 20:10:08;;;;;;;11.13;2.75;;;;;;;19.84;98.79;101370.25;10214022;28;20061;-69
2022/06/18 20:15:05;;;;;;;11.93;3.08;;;;;;;19.83;97.11;101363.09;10209875;28;20042;-68
2022/06/18 20:20:04;;;;;;;11.52;2.70;;;;;;;19.72;95.93;101367.59;10212338;28;20049;-68
2022/06/18 20:25:02;;;;;;;12.20;2.20;;;;;;;19.70;92.51;101364.38;10204291;28;20442;-68
2022/06/18 20:29:58;;;;;;;13.35;2.03;;;;;;;19.72;91.57;101364.81;10204713;28;20104;-68
2022/06/18 20:34:55;;;;;;;11.43;2.85;;;;;;;19.60;89.98;101351.06;10209589;28;20057;-68
2022/06/18 20:39:51;;;;;;;8.82;2.03;;;;;;;19.53;89.62;101346.97;10208470;28;20563;-68
2022/06/18 20:44:48;;;;;;;9.73;2.05;;;;;;;19.49;88.19;101343.31;10217911;28;20565;-68
2022/06/18 20:49:44;;;;;;;9.57;2.25;;;;;;;19.42;85.24;101332.06;10201836;28;20112;-68
2022/06/18 20:59:58;;;;;;;7.50;2.40;;;;;;;19.28;83.27;101342.84;10211298;28;20115;-68
2022/06/18 21:04:57;;;;;;;9.63;1.58;;;;;;;19.19;84.40;101339.47;10210735;28;20158;-68
2022/06/18 21:09:53;;;;;;;9.80;1.95;;;;;;;19.14;86.87;101343.34;10207145;28;20479;-68
2022/06/18 21:14:51;;;;;;;10.55;2.47;;;;;;;19.11;90.05;101333.78;10209797;28;20081;-69
2022/06/18 21:19:50;;;;;;;7.60;1.73;;;;;;;19.05;91.96;101329.69;10213980;28;20096;-69
2022/06/18 21:24:47;;;;;;;11.98;2.25;;;;;;;18.96;89.30;101315.25;10212642;28;20437;-69
2022/06/18 21:29:44;;;;;;;9.48;2.20;;;;;;;18.89;88.98;101299.25;10219187;28;20077;-69
2022/06/18 21:39:58;;;;;;;13.77;2.20;;;;;;;18.84;88.69;101265.47;10218865;28;20065;-68
2022/06/18 21:44:59;;;;;;;9.93;2.35;;;;;;;18.71;89.00;101260.00;10220856;28;20123;-69
2022/06/18 21:49:56;;;;;;;10.07;2.57;;;;;;;18.63;90.91;101266.53;10214322;28;20042;-69
2022/06/18 21:54:52;;;;;;;14.73;3.78;;;;;;;18.59;92.32;101279.50;10211014;28;20187;-68
2022/06/18 22:00:12;;;;;;;10.10;2.30;;;;;;;18.53;91.37;101294.78;10209624;28;20111;-69
2022/06/18 22:05:09;;;;;;;11.07;2.72;;;;;;;18.48;92.25;101289.53;10222074;28;20096;-69
2022/06/18 22:10:06;;;;;;;14.73;2.65;;;;;;;18.42;93.40;101290.94;10224661;28;20885;-69
2022/06/18 22:20:17;;;;;;;12.10;2.00;;;;;;;18.28;96.48;101274.78;10225160;28;20072;-69
2022/06/18 22:25:16;;;;;;;8.55;2.30;;;;;;;18.29;97.97;101243.97;10223583;28;20077;-69
2022/06/18 22:30:14;;;;;;;12.40;2.83;;;;;;;18.23;97.75;101245.41;10225753;28;20045;-69
2022/06/18 22:35:11;;;;;;;11.65;2.78;;;;;;;18.18;100.00;101244.88;10226138;28;20049;-69
2022/06/18 22:40:09;;;;;;;11.30;2.25;;;;;;;18.13;100.00;101223.81;10225754;28;20079;-68
2022/06/18 22:45:07;;;;;;;14.88;2.63;;;;;;;18.08;100.00;101229.63;10225277;28;20049;-68
2022/06/18 22:50:08;;;;;;;13.77;2.53;;;;;;;18.08;100.00;101243.44;10223488;28;20097;-68
2022/06/18 22:55:12;;;;;;;9.43;1.98;;;;;;;18.07;100.00;101216.94;10226909;28;20053;-68
2022/06/18 23:00:11;;;;;;;11.98;2.50;;;;;;;17.97;100.00;101209.16;10223538;28;20119;-68
2022/06/18 23:05:09;;;;;;;10.63;2.30;;;;;;;17.90;100.00;101209.78;10217362;28;20087;-68
2022/06/18 23:10:09;;;;;;;16.23;2.47;;;;;;;17.86;100.00;101229.03;10213394;28;20045;-69
2022/06/18 23:15:08;;;;;;;11.32;2.13;;;;;;;17.77;100.00;101217.31;10226195;28;20103;-69
2022/06/18 23:20:10;;;;;;;11.80;2.72;;;;;;;17.69;100.00;101210.00;10230119;28;20433;-68
2022/06/18 23:25:08;;;;;;;8.97;2.20;;;;;;;17.73;100.00;101216.44;10214643;28;20083;-68
2022/06/18 23:30:06;;;;;;;11.15;2.63;;;;;;;17.72;100.00;101214.81;10225713;28;20481;-68
2022/06/18 23:35:06;;;;;;;12.60;2.67;;;;;;;17.67;100.00;101228.91;10216611;28;20045;-68
2022/06/18 23:40:25;;;;;;;11.73;2.60;;;;;;;17.71;100.00;101240.88;10225376;28;20058;-69
2022/06/18 23:45:23;;;;;;;15.38;2.47;;;;;;;17.64;100.00;101235.94;10222558;28;20505;-68
2022/06/18 23:50:19;;;;;;;14.80;2.70;;;;;;;17.60;100.00;101239.78;10226701;28;20045;-68